createdAt,value
2023-01-13T00:01:07.776Z,94845.31
2023-01-13T00:03:35.746Z,94845.69
2023-01-13T00:06:03.968Z,94843.81
2023-01-13T00:08:32.004Z,94852.69
2023-01-13T00:11:00.241Z,94857.34
2023-01-13T00:13:28.089Z,94852.00
2023-01-13T00:16:01.841Z,94857.34
2023-01-13T00:18:30.017Z,94852.44
2023-01-13T00:21:01.206Z,94857.56
2023-01-13T00:23:30.363Z,94853.63
2023-01-13T00:25:59.113Z,94850.94
2023-01-13T00:28:27.477Z,94846.63
2023-01-13T00:30:56.371Z,94853.84
2023-01-13T00:33:26.426Z,94854.56
2023-01-13T00:35:58.233Z,94848.97
2023-01-13T00:38:26.108Z,94862.47
2023-01-13T00:40:57.621Z,94845.22
2023-01-13T00:43:24.703Z,94856.09
2023-01-13T00:45:52.732Z,94850.72
2023-01-13T00:48:20.978Z,94850.38
2023-01-13T00:50:56.580Z,94847.22
2023-01-13T00:53:24.992Z,94851.19
2023-01-13T00:56:00.922Z,94854.56
2023-01-13T00:58:28.817Z,94846.50
2023-01-13T01:00:56.790Z,94852.81
2023-01-13T01:03:24.792Z,94828.44
2023-01-13T01:05:54.019Z,94839.78
2023-01-13T01:08:21.932Z,94842.34
2023-01-13T01:10:49.842Z,94836.72
2023-01-13T01:13:17.797Z,94842.09
2023-01-13T01:15:47.777Z,94840.00
2023-01-13T01:18:15.659Z,94838.13
2023-01-13T01:20:43.513Z,94834.66
2023-01-13T01:23:12.704Z,94835.91
2023-01-13T01:25:40.607Z,94838.72
2023-01-13T01:28:08.628Z,94834.72
2023-01-13T01:30:36.484Z,94826.22
2023-01-13T01:33:05.343Z,94834.03
2023-01-13T01:35:33.245Z,94830.78
2023-01-13T01:38:01.071Z,94825.88
2023-01-13T01:40:30.270Z,94826.34
2023-01-13T01:43:15.677Z,94828.22
2023-01-13T01:45:43.580Z,94813.06
2023-01-13T01:48:12.275Z,94814.78
2023-01-13T01:50:41.296Z,94823.78
2023-01-13T01:53:14.204Z,94813.53
2023-01-13T01:55:43.764Z,94815.84
2023-01-13T01:58:14.719Z,94819.69
2023-01-13T02:00:42.638Z,94828.19
2023-01-13T02:03:12.057Z,94821.09
2023-01-13T02:05:40.171Z,94814.91
2023-01-13T02:08:11.932Z,94813.75
2023-01-13T02:10:41.712Z,94821.69
2023-01-13T02:13:14.184Z,94825.53
2023-01-13T02:15:52.299Z,94813.97
2023-01-13T02:18:36.299Z,94814.31
2023-01-13T02:21:23.691Z,94822.13
2023-01-13T02:24:32.048Z,94808.97
2023-01-13T02:27:38.278Z,94815.75
2023-01-13T02:30:40.761Z,94818.63
2023-01-13T02:33:21.039Z,94817.47
2023-01-13T02:35:53.570Z,94822.25
2023-01-13T02:38:29.627Z,94818.63
2023-01-13T02:41:21.055Z,94815.59
2023-01-13T02:44:11.287Z,94807.66
2023-01-13T02:46:51.411Z,94812.59
2023-01-13T02:49:28.808Z,94808.84
2023-01-13T02:52:03.131Z,94815.63
2023-01-13T02:54:34.510Z,94808.97
2023-01-13T02:57:03.329Z,94807.22
2023-01-13T02:59:32.370Z,94807.09
2023-01-13T03:02:03.497Z,94814.91
2023-01-13T03:04:51.241Z,94807.66
2023-01-13T03:07:53.472Z,94812.59
2023-01-13T03:10:34.861Z,94808.59
2023-01-13T03:13:15.584Z,94810.25
2023-01-13T03:15:53.798Z,94813.84
2023-01-13T03:18:35.549Z,94810.69
2023-01-13T03:21:09.104Z,94811.88
2023-01-13T03:23:45.714Z,94804.19
2023-01-13T03:26:17.982Z,94807.47
2023-01-13T03:28:50.231Z,94809.19
2023-01-13T03:31:25.771Z,94809.19
2023-01-13T03:34:00.709Z,94810.16
2023-01-13T03:36:32.613Z,94819.91
2023-01-13T03:39:07.493Z,94814.22
2023-01-13T03:41:39.884Z,94826.09
2023-01-13T03:44:23.051Z,94826.34
2023-01-13T03:46:59.619Z,94822.94
2023-01-13T03:49:32.942Z,94820.06
2023-01-13T03:52:06.207Z,94824.59
2023-01-13T03:54:41.571Z,94821.09
2023-01-13T03:57:15.028Z,94824.50
2023-01-13T03:59:47.632Z,94814.00
2023-01-13T04:02:22.511Z,94822.41
2023-01-13T04:04:56.041Z,94824.59
2023-01-13T04:07:32.506Z,94825.63
2023-01-13T04:10:03.904Z,94819.72
2023-01-13T04:12:47.386Z,94825.88
2023-01-13T04:15:15.841Z,94830.66
2023-01-13T04:17:43.788Z,94839.63
2023-01-13T04:20:13.528Z,94832.19
2023-01-13T04:22:41.443Z,94836.47
2023-01-13T04:25:11.381Z,94836.81
2023-01-13T04:27:39.347Z,94842.19
2023-01-13T04:30:08.459Z,94838.72
2023-01-13T04:32:36.370Z,94837.28
2023-01-13T04:35:04.648Z,94845.50
2023-01-13T04:37:34.477Z,94841.88
2023-01-13T04:40:02.373Z,94834.06
2023-01-13T04:42:30.294Z,94839.88
2023-01-13T04:44:58.194Z,94843.00
2023-01-13T04:47:26.096Z,94842.44
2023-01-13T04:49:53.980Z,94841.97
2023-01-13T04:52:21.835Z,94848.38
2023-01-13T04:54:51.162Z,94843.00
2023-01-13T04:57:19.100Z,94834.41
2023-01-13T04:59:46.959Z,94840.81
2023-01-13T05:02:19.837Z,94849.19
2023-01-13T05:04:48.637Z,94845.25
2023-01-13T05:07:18.494Z,94846.16
2023-01-13T05:09:46.402Z,94849.06
2023-01-13T05:12:33.099Z,94844.06
2023-01-13T05:15:18.408Z,94848.06
2023-01-13T05:17:46.926Z,94849.06
2023-01-13T05:20:15.259Z,94854.78
2023-01-13T05:23:00.558Z,94847.56
2023-01-13T05:25:28.503Z,94855.25
2023-01-13T05:27:59.658Z,94852.47
2023-01-13T05:30:29.518Z,94857.47
2023-01-13T05:32:57.615Z,94862.25
2023-01-13T05:35:26.035Z,94857.47
2023-01-13T05:37:56.194Z,94856.53
2023-01-13T05:40:41.661Z,94854.69
2023-01-13T05:43:24.554Z,94865.63
2023-01-13T05:45:56.868Z,94855.59
2023-01-13T05:48:27.195Z,94860.28
2023-01-13T05:50:55.377Z,94865.28
2023-01-13T05:53:24.318Z,94855.75
2023-01-13T05:55:52.620Z,94868.06
2023-01-13T05:58:25.560Z,94868.56
2023-01-13T06:00:53.952Z,94873.47
2023-01-13T06:03:21.863Z,94874.28
2023-01-13T06:05:51.427Z,94875.22
2023-01-13T06:08:20.218Z,94876.03
2023-01-13T06:10:48.145Z,94882.53
2023-01-13T06:13:16.025Z,94881.41
2023-01-13T06:15:45.811Z,94885.56
2023-01-13T06:18:13.811Z,94880.09
2023-01-13T06:20:41.645Z,94892.47
2023-01-13T06:23:10.952Z,94890.38
2023-01-13T06:25:45.651Z,94893.66
2023-01-13T06:28:13.712Z,94887.00
2023-01-13T06:30:47.889Z,94897.25
2023-01-13T06:33:19.137Z,94898.84
2023-01-13T06:35:53.570Z,94895.94
2023-01-13T06:38:23.774Z,94894.41
2023-01-13T06:40:51.705Z,94888.59
2023-01-13T06:43:18.652Z,94883.00
2023-01-13T06:45:50.522Z,94894.56
2023-01-13T06:48:19.994Z,94886.28
2023-01-13T06:50:47.896Z,94884.06
2023-01-13T06:53:15.810Z,94889.53
2023-01-13T06:55:43.667Z,94887.81
2023-01-13T06:58:11.719Z,94888.63
2023-01-13T07:00:40.087Z,94889.78
2023-01-13T07:03:13.922Z,94886.63
2023-01-13T07:05:42.975Z,94885.59
2023-01-13T07:08:11.585Z,94893.16
2023-01-13T07:10:39.614Z,94894.59
2023-01-13T07:13:25.041Z,94888.88
2023-01-13T07:15:57.814Z,94883.16
2023-01-13T07:18:28.685Z,94887.13
2023-01-13T07:20:58.544Z,94887.44
2023-01-13T07:23:26.749Z,94887.09
2023-01-13T07:25:57.300Z,94887.91
2023-01-13T07:28:25.993Z,94884.28
2023-01-13T07:30:54.076Z,94870.44
2023-01-13T07:33:22.468Z,94877.75
2023-01-13T07:35:57.568Z,94881.00
2023-01-13T07:38:25.706Z,94886.09
2023-01-13T07:40:53.551Z,94884.19
2023-01-13T07:43:32.585Z,94877.53
2023-01-13T07:46:02.056Z,94887.16
2023-01-13T07:48:30.765Z,94887.81
2023-01-13T07:51:03.349Z,94892.25
2023-01-13T07:53:31.385Z,94894.81
2023-01-13T07:56:00.389Z,94891.31
2023-01-13T07:58:28.923Z,94895.72
2023-01-13T08:00:58.275Z,94898.50
2023-01-13T08:03:27.521Z,94894.59
2023-01-13T08:05:55.716Z,94901.88
2023-01-13T08:08:25.150Z,94898.75
2023-01-13T08:10:53.081Z,94910.19
2023-01-13T08:13:21.753Z,94906.84
2023-01-13T08:15:51.651Z,94908.72
2023-01-13T08:18:22.313Z,94903.66
2023-01-13T08:20:52.601Z,94898.28
2023-01-13T08:23:20.963Z,94911.38
2023-01-13T08:25:50.912Z,94917.16
2023-01-13T08:28:19.108Z,94899.25
2023-01-13T08:30:47.153Z,94897.06
2023-01-13T08:33:15.086Z,94910.97
2023-01-13T08:35:43.373Z,94912.06
2023-01-13T08:38:11.582Z,94900.44
2023-01-13T08:40:40.961Z,94913.69
2023-01-13T08:43:10.492Z,94915.31
2023-01-13T08:45:43.062Z,94905.53
2023-01-13T08:48:11.315Z,94909.19
2023-01-13T08:50:39.250Z,94907.78
2023-01-13T08:53:08.693Z,94909.53
2023-01-13T08:55:36.917Z,94889.72
2023-01-13T08:58:15.303Z,94882.72
2023-01-13T09:00:46.047Z,94900.19
2023-01-13T09:03:14.261Z,94895.63
2023-01-13T09:05:42.185Z,94908.38
2023-01-13T09:08:10.348Z,94904.84
2023-01-13T09:10:40.462Z,94904.28
2023-01-13T09:13:13.379Z,94904.81
2023-01-13T09:15:43.789Z,94883.31
2023-01-13T09:18:13.812Z,94900.97
2023-01-13T09:20:41.881Z,94898.06
2023-01-13T09:23:11.168Z,94899.44
2023-01-13T09:25:39.616Z,94902.66
2023-01-13T09:28:08.689Z,94896.56
2023-01-13T09:30:37.782Z,94894.09
2023-01-13T09:33:22.859Z,94895.75
2023-01-13T09:35:52.288Z,94893.56
2023-01-13T09:38:20.648Z,94892.66
2023-01-13T09:40:50.735Z,94896.91
2023-01-13T09:43:39.956Z,94895.97
2023-01-13T09:46:35.188Z,94899.75
2023-01-13T09:49:04.926Z,94900.81
2023-01-13T09:51:40.989Z,94891.25
2023-01-13T09:54:17.353Z,94889.06
2023-01-13T09:56:45.489Z,94882.25
2023-01-13T09:59:13.859Z,94889.59
2023-01-13T10:01:52.712Z,94887.22
2023-01-13T10:04:20.925Z,94882.88
2023-01-13T10:06:56.316Z,94869.44
2023-01-13T10:09:31.909Z,94880.47
2023-01-13T10:12:18.993Z,94873.94
2023-01-13T10:14:53.085Z,94882.50
2023-01-13T10:17:30.484Z,94891.59
2023-01-13T10:20:04.708Z,94876.91
2023-01-13T10:22:50.323Z,94881.53
2023-01-13T10:25:47.110Z,94877.06
2023-01-13T10:28:19.495Z,94869.19
2023-01-13T10:30:48.645Z,94869.31
2023-01-13T10:33:20.779Z,94865.94
2023-01-13T10:35:54.598Z,94872.72
2023-01-13T10:38:26.684Z,94866.63
2023-01-13T10:40:57.212Z,94865.81
2023-01-13T10:43:26.355Z,94865.38
2023-01-13T10:46:02.051Z,94856.94
2023-01-13T10:48:39.407Z,94863.34
2023-01-13T10:51:22.914Z,94855.19
2023-01-13T10:53:58.472Z,94856.38
2023-01-13T10:56:28.875Z,94851.63
2023-01-13T10:59:14.536Z,94851.63
2023-01-13T11:01:44.285Z,94853.09
2023-01-13T11:04:30.209Z,94854.50
2023-01-13T11:06:58.982Z,94844.72
2023-01-13T11:09:31.073Z,94851.13
2023-01-13T11:11:59.539Z,94850.81
2023-01-13T11:17:48.720Z,94842.53
2023-01-13T11:20:22.145Z,94839.97
2023-01-13T11:22:53.037Z,94831.81
2023-01-13T11:25:33.768Z,94834.22
2023-01-13T11:28:07.136Z,94832.66
2023-01-13T11:30:44.928Z,94835.81
2023-01-13T11:33:30.864Z,94828.94
2023-01-13T11:36:07.602Z,94834.81
2023-01-13T11:38:41.709Z,94834.56
2023-01-13T11:41:26.850Z,94825.72
2023-01-13T11:43:59.385Z,94824.25
2023-01-13T11:46:29.118Z,94820.03
2023-01-13T11:48:58.014Z,94819.50
2023-01-13T11:51:34.824Z,94825.75
2023-01-13T11:54:22.749Z,94819.91
2023-01-13T11:57:14.488Z,94820.31
2023-01-13T12:00:12.444Z,94807.19
2023-01-13T12:02:53.759Z,94813.41
2023-01-13T12:05:33.951Z,94809.91
2023-01-13T12:08:16.690Z,94806.91
2023-01-13T12:10:57.065Z,94795.50
2023-01-13T12:13:36.995Z,94800.81
2023-01-13T12:16:21.632Z,94800.38
2023-01-13T12:19:19.762Z,94800.41
2023-01-13T12:22:04.778Z,94798.63
2023-01-13T12:24:44.198Z,94803.78
2023-01-13T12:27:17.195Z,94794.00
2023-01-13T12:29:50.150Z,94796.16
2023-01-13T12:32:21.937Z,94795.50
2023-01-13T12:35:03.776Z,94800.34
2023-01-13T12:37:38.917Z,94800.91
2023-01-13T12:40:21.807Z,94795.19
2023-01-13T12:43:14.780Z,94806.88
2023-01-13T12:45:44.093Z,94805.47
2023-01-13T12:48:49.281Z,94805.59
2023-01-13T12:51:25.061Z,94813.50
2023-01-13T12:53:54.756Z,94813.06
2023-01-13T12:56:44.795Z,94817.44
2023-01-13T12:59:40.202Z,94812.97
2023-01-13T13:02:31.413Z,94814.00
2023-01-13T13:05:17.660Z,94811.97
2023-01-13T13:07:48.446Z,94808.44
2023-01-13T13:10:21.872Z,94818.22
2023-01-13T13:13:16.701Z,94820.16
2023-01-13T13:15:45.643Z,94819.72
2023-01-13T13:18:30.511Z,94817.28
2023-01-13T13:21:04.281Z,94819.59
2023-01-13T13:23:58.387Z,94824.63
2023-01-13T13:26:32.796Z,94830.66
2023-01-13T13:29:35.664Z,94826.16
2023-01-13T13:32:17.437Z,94823.31
2023-01-13T13:34:54.215Z,94825.34
2023-01-13T13:37:54.537Z,94824.13
2023-01-13T13:40:41.235Z,94832.66
2023-01-13T13:43:34.227Z,94832.09
2023-01-13T13:46:19.621Z,94827.38
2023-01-13T13:48:55.378Z,94831.31
2023-01-13T13:51:30.670Z,94830.09
2023-01-13T13:54:02.740Z,94831.44
2023-01-13T13:56:36.885Z,94826.16
2023-01-13T13:59:04.948Z,94836.19
2023-01-13T14:01:38.729Z,94834.03
2023-01-13T14:04:13.403Z,94833.38
2023-01-13T14:06:53.156Z,94827.63
2023-01-13T14:09:22.403Z,94823.84
2023-01-13T14:12:03.096Z,94830.63
2023-01-13T14:14:31.586Z,94834.03
2023-01-13T14:16:59.656Z,94825.63
2023-01-13T14:19:33.651Z,94829.41
2023-01-13T14:22:04.786Z,94836.88
2023-01-13T14:24:33.623Z,94830.66
2023-01-13T14:27:19.746Z,94830.50
2023-01-13T14:29:47.986Z,94836.19
2023-01-13T14:32:19.555Z,94839.56
2023-01-13T14:34:47.785Z,94838.63
2023-01-13T14:37:32.485Z,94837.94
2023-01-13T14:40:03.006Z,94845.44
2023-01-13T14:42:31.728Z,94841.34
2023-01-13T14:45:00.916Z,94839.16
2023-01-13T14:47:33.253Z,94834.00
2023-01-13T14:50:04.038Z,94837.06
2023-01-13T14:52:35.417Z,94842.53
2023-01-13T14:55:31.072Z,94843.22
2023-01-13T14:58:29.352Z,94846.22
2023-01-13T15:01:28.187Z,94841.31
2023-01-13T15:03:56.474Z,94850.84
2023-01-13T15:06:27.447Z,94844.44
2023-01-13T15:08:57.002Z,94840.53
2023-01-13T15:11:28.594Z,94850.59
2023-01-13T15:14:01.286Z,94844.59
2023-01-13T15:16:33.846Z,94845.97
2023-01-13T15:19:03.420Z,94849.63
2023-01-13T15:21:31.439Z,94845.16
2023-01-13T15:24:01.236Z,94850.72
2023-01-13T15:26:31.160Z,94847.19
2023-01-13T15:29:00.849Z,94839.44
2023-01-13T15:31:29.540Z,94849.78
2023-01-13T15:33:58.976Z,94845.69
2023-01-13T15:36:30.258Z,94855.91
2023-01-13T15:39:01.526Z,94850.19
2023-01-13T15:41:46.801Z,94858.78
2023-01-13T15:44:33.761Z,94862.00
2023-01-13T15:47:04.338Z,94859.69
2023-01-13T15:49:37.079Z,94856.28
2023-01-13T15:52:07.824Z,94859.84
2023-01-13T15:54:37.297Z,94849.91
2023-01-13T15:57:07.693Z,94863.09
2023-01-13T15:59:35.685Z,94856.31
2023-01-13T16:02:03.785Z,94852.25
2023-01-13T16:04:31.920Z,94847.34
2023-01-13T16:07:00.659Z,94863.75
2023-01-13T16:09:28.677Z,94859.94
2023-01-13T16:11:58.175Z,94864.31
2023-01-13T16:14:26.329Z,94858.19
2023-01-13T16:16:54.736Z,94864.44
2023-01-13T16:19:22.610Z,94857.09
2023-01-13T16:21:50.624Z,94856.28
2023-01-13T16:24:18.974Z,94858.06
2023-01-13T16:26:47.097Z,94856.84
2023-01-13T16:29:17.253Z,94858.34
2023-01-13T16:31:45.486Z,94862.56
2023-01-13T16:34:13.583Z,94859.00
2023-01-13T16:36:41.664Z,94856.84
2023-01-13T16:39:22.295Z,94861.19
2023-01-13T16:41:50.957Z,94861.88
2023-01-13T16:44:20.888Z,94863.34
2023-01-13T16:46:49.353Z,94856.84
2023-01-13T16:49:18.484Z,94855.88
2023-01-13T16:51:47.095Z,94860.38
2023-01-13T16:54:14.968Z,94859.00
2023-01-13T16:56:43.121Z,94851.25
2023-01-13T16:59:14.833Z,94855.22
2023-01-13T17:01:45.774Z,94860.78
2023-01-13T17:04:16.767Z,94863.06
2023-01-13T17:06:51.344Z,94859.94
2023-01-13T17:09:20.963Z,94863.50
2023-01-13T17:11:48.924Z,94865.78
2023-01-13T17:14:19.558Z,94859.28
2023-01-13T17:16:49.277Z,94852.78
2023-01-13T17:19:18.124Z,94850.34
2023-01-13T17:21:47.144Z,94860.78
2023-01-13T17:24:15.278Z,94860.25
2023-01-13T17:26:47.244Z,94856.59
2023-01-13T17:29:16.900Z,94858.59
2023-01-13T17:31:44.918Z,94854.81
2023-01-13T17:34:14.538Z,94850.19
2023-01-13T17:36:43.504Z,94852.22
2023-01-13T17:39:16.853Z,94853.88
2023-01-13T17:41:44.946Z,94849.66
2023-01-13T17:44:14.708Z,94860.78
2023-01-13T17:46:43.136Z,94856.72
2023-01-13T17:49:12.076Z,94859.00
2023-01-13T17:51:41.763Z,94860.91
2023-01-13T17:54:12.301Z,94861.34
2023-01-13T17:56:40.743Z,94854.66
2023-01-13T17:59:10.441Z,94857.53
2023-01-13T18:01:39.597Z,94858.44
2023-01-13T18:04:08.538Z,94858.25
2023-01-13T18:06:36.797Z,94858.53
2023-01-13T18:09:06.213Z,94859.56
2023-01-13T18:11:42.068Z,94858.78
2023-01-13T18:14:11.384Z,94857.41
2023-01-13T18:16:39.951Z,94852.69
2023-01-13T18:19:25.764Z,94852.19
2023-01-13T18:22:11.435Z,94861.56
2023-01-13T18:24:58.506Z,94861.72
2023-01-13T18:27:31.067Z,94864.44
2023-01-13T18:30:00.335Z,94859.69
2023-01-13T18:32:32.838Z,94860.78
2023-01-13T18:35:06.033Z,94857.25
2023-01-13T18:37:35.958Z,94863.75
2023-01-13T18:40:07.041Z,94847.19
2023-01-13T18:42:54.323Z,94857.91
2023-01-13T18:45:24.392Z,94865.41
2023-01-13T18:47:54.152Z,94871.09
2023-01-13T18:50:23.155Z,94872.72
2023-01-13T18:52:51.656Z,94863.22
2023-01-13T18:55:21.474Z,94860.25
2023-01-13T18:57:50.492Z,94859.16
2023-01-13T19:00:21.137Z,94854.28
2023-01-13T19:02:51.005Z,94860.09
2023-01-13T19:05:26.042Z,94861.06
2023-01-13T19:07:54.047Z,94852.34
2023-01-13T19:10:23.886Z,94848.03
2023-01-13T19:12:52.099Z,94854.81
2023-01-13T19:15:24.794Z,94853.16
2023-01-13T19:17:52.737Z,94857.13
2023-01-13T19:20:22.425Z,94849.66
2023-01-13T19:22:54.222Z,94845.59
2023-01-13T19:25:23.600Z,94854.41
2023-01-13T19:27:51.624Z,94849.25
2023-01-13T19:30:19.969Z,94852.22
2023-01-13T19:32:47.940Z,94856.69
2023-01-13T19:35:18.031Z,94854.94
2023-01-13T19:37:46.169Z,94849.91
2023-01-13T19:40:18.149Z,94841.63
2023-01-13T19:43:04.304Z,94834.44
2023-01-13T19:45:35.067Z,94837.97
2023-01-13T19:48:05.654Z,94837.97
2023-01-13T19:50:37.492Z,94843.97
2023-01-13T19:53:05.803Z,94851.81
2023-01-13T19:55:33.748Z,94853.16
2023-01-13T19:58:03.664Z,94843.03
2023-01-13T20:00:31.556Z,94844.91
2023-01-13T20:03:03.455Z,94850.56
2023-01-13T20:05:31.871Z,94851.66
2023-01-13T20:07:59.775Z,94847.88
2023-01-13T20:10:30.384Z,94844.63
2023-01-13T20:12:58.420Z,94843.16
2023-01-13T20:15:28.200Z,94842.19
2023-01-13T20:17:57.960Z,94839.72
2023-01-13T20:20:27.355Z,94840.28
2023-01-13T20:22:55.599Z,94847.06
2023-01-13T20:25:23.605Z,94839.59
2023-01-13T20:27:53.321Z,94836.09
2023-01-13T20:30:21.399Z,94838.25
2023-01-13T20:32:50.917Z,94836.50
2023-01-13T20:35:18.987Z,94833.91
2023-01-13T20:37:46.995Z,94832.25
2023-01-13T20:40:18.422Z,94829.94
2023-01-13T20:42:46.410Z,94835.13
2023-01-13T20:45:17.616Z,94831.31
2023-01-13T20:47:46.444Z,94835.41
2023-01-13T20:50:17.392Z,94826.44
2023-01-13T20:52:45.992Z,94829.66
2023-01-13T20:55:14.485Z,94821.00
2023-01-13T20:57:42.520Z,94832.81
2023-01-13T21:00:12.522Z,94828.44
2023-01-13T21:02:44.058Z,94829.38
2023-01-13T21:05:12.423Z,94828.28
2023-01-13T21:07:41.868Z,94826.25
2023-01-13T21:10:11.449Z,94829.53
2023-01-13T21:12:57.277Z,94826.16
2023-01-13T21:15:27.425Z,94824.25
2023-01-13T21:18:12.565Z,94817.88
2023-01-13T21:20:40.753Z,94828.88
2023-01-13T21:23:11.320Z,94832.66
2023-01-13T21:25:40.675Z,94831.72
2023-01-13T21:28:11.643Z,94832.66
2023-01-13T21:30:40.086Z,94818.13
2023-01-13T21:33:09.763Z,94835.25
2023-01-13T21:35:40.669Z,94833.31
2023-01-13T21:38:11.947Z,94827.44
2023-01-13T21:40:39.885Z,94846.31
2023-01-13T21:43:26.732Z,94840.47
2023-01-13T21:46:12.189Z,94846.41
2023-01-13T21:48:40.315Z,94847.50
2023-01-13T21:51:08.284Z,94852.47
2023-01-13T21:53:37.596Z,94850.16
2023-01-13T21:56:06.607Z,94849.22
2023-01-13T21:58:34.580Z,94839.81
2023-01-13T22:01:03.872Z,94835.94
2023-01-13T22:03:52.259Z,94835.13
2023-01-13T22:06:20.263Z,94834.97
2023-01-13T22:08:50.034Z,94837.38
2023-01-13T22:11:17.947Z,94829.38
2023-01-13T22:14:04.591Z,94832.28
2023-01-13T22:16:34.324Z,94828.63
2023-01-13T22:19:02.278Z,94828.94
2023-01-13T22:21:30.491Z,94822.16
2023-01-13T22:24:00.533Z,94830.97
2023-01-13T22:26:28.948Z,94826.28
2023-01-13T22:28:57.781Z,94810.97
2023-01-13T22:31:25.905Z,94817.63
2023-01-13T22:33:55.122Z,94819.13
2023-01-13T22:36:24.045Z,94821.16
2023-01-13T22:38:55.734Z,94814.59
2023-01-13T22:41:25.264Z,94823.56
2023-01-13T22:43:53.176Z,94821.25
2023-01-13T22:46:22.276Z,94826.94
2023-01-13T22:48:53.682Z,94821.25
2023-01-13T22:51:23.825Z,94832.09
2023-01-13T22:53:52.590Z,94821.88
2023-01-13T22:56:22.717Z,94807.44
2023-01-13T22:58:55.804Z,94813.50
2023-01-13T23:01:25.555Z,94810.44
2023-01-13T23:03:54.249Z,94806.50
2023-01-13T23:06:23.990Z,94812.66
2023-01-13T23:08:52.735Z,94807.84
2023-01-13T23:11:23.522Z,94817.31
2023-01-13T23:13:52.031Z,94812.16
2023-01-13T23:16:22.461Z,94810.94
2023-01-13T23:18:50.485Z,94821.66
2023-01-13T23:21:20.553Z,94811.06
2023-01-13T23:23:49.211Z,94802.00
2023-01-13T23:26:17.656Z,94806.03
2023-01-13T23:28:45.782Z,94815.75
2023-01-13T23:31:15.508Z,94811.56
2023-01-13T23:33:45.351Z,94797.44
2023-01-13T23:36:16.052Z,94802.03
2023-01-13T23:38:44.243Z,94805.88
2023-01-13T23:41:14.721Z,94800.72
2023-01-13T23:43:42.695Z,94811.69
2023-01-13T23:46:13.413Z,94804.94
2023-01-13T23:48:41.323Z,94801.78
2023-01-13T23:51:13.177Z,94805.34
2023-01-13T23:53:43.115Z,94803.44
2023-01-13T23:56:14.460Z,94803.97
2023-01-13T23:58:43.047Z,94803.16
